Vaughn, Montana
Current Conditions -  °F | °C
As of 2:53 PM on Monday 22 Dec 2014 (Local Time) from KGTF Reporting Station
Overcast Overcast  
Wind Chill: 31°   Ceiling: 9500
Heat Index: 39°   Visibility: 10mi
Dew Point: 22°   Wind: 14mph
Humidity: 50%   Direction: 330°NNW
Pressure: 29.95"   Gusts: NA
Location:  47.56°N, 111.55°W
Report Text: KGTF 222153Z 33012KT 10SM FEW055 SCT075 OVC095 04/M06 A2995 RMK AO2 SLP172 T00391056
Loading
Personal Weather Stations






























Interactive Weather Map New forecast layout! Learn more

10-Day Weather Forecast

Advertisements
Track Severe Weather on mobile